Time;durP1;ratioP1;P1;durP2;ratioP2;P2;SDS_P1;SDS_P2;PMS_P1;PMS_P2;Temp;Humidity;BMP_temperature;BMP_pressure;BME280_temperature;BME280_humidity;BME280_pressure;Samples;Min_cycle;Max_cycle;Signal;HPM_P1;HPM_P2
2020/12/18 13:46:02;;;;;;;3.28;2.95;;;;;;;17.97;25.40;100773.44;5066867;27;20363;-59
2020/12/18 13:48:28;;;;;;;6.38;3.55;;;;;;;15.01;29.81;100788.59;5094755;28;20040;-53
2020/12/18 13:50:54;;;;;;;3.60;3.30;;;;;;;9.75;36.57;100800.25;5099383;28;20273;-53
2020/12/18 13:53:20;;;;;;;3.75;3.45;;;;;;;8.81;38.73;100803.50;5099999;28;20039;-54
2020/12/18 13:55:48;;;;;;;4.45;4.05;;;;;;;7.86;41.67;100792.59;5099679;28;20336;-54
2020/12/18 13:58:14;;;;;;;4.68;3.78;;;;;;;6.72;43.97;100784.59;5099018;28;20032;-54
2020/12/18 14:00:40;;;;;;;4.53;4.13;;;;;;;5.11;48.20;100788.94;5099134;28;20032;-54
2020/12/18 14:03:05;;;;;;;4.30;3.90;;;;;;;4.31;50.00;100793.31;5099332;28;20039;-54
2020/12/18 14:05:31;;;;;;;3.67;3.28;;;;;;;4.18;51.42;100793.88;5090791;28;20025;-53
2020/12/18 14:07:56;;;;;;;4.03;3.70;;;;;;;4.30;50.66;100783.88;5079515;28;20029;-53
2020/12/18 14:10:22;;;;;;;4.47;4.03;;;;;;;4.19;51.53;100785.34;5090354;28;20032;-53
2020/12/18 14:12:48;;;;;;;5.18;4.00;;;;;;;3.70;51.96;100792.75;5098755;28;20035;-54
2020/12/18 14:15:13;;;;;;;4.25;3.85;;;;;;;2.72;55.09;100800.41;5099632;28;20024;-52
2020/12/18 14:17:39;;;;;;;5.07;4.25;;;;;;;2.19;57.17;100792.00;5099228;28;20016;-53
2020/12/18 14:20:05;;;;;;;4.70;3.63;;;;;;;2.00;58.12;100799.09;5098929;28;20240;-53
2020/12/18 14:22:31;;;;;;;3.97;3.58;;;;;;;1.91;58.29;100806.50;5099009;28;20138;-54
2020/12/18 14:24:57;;;;;;;4.43;4.03;;;;;;;1.88;58.91;100811.47;5098899;28;20236;-53
2020/12/18 14:27:22;;;;;;;5.30;4.20;;;;;;;1.62;60.25;100814.06;5099064;28;20031;-55
2020/12/18 14:29:48;;;;;;;6.85;4.88;;;;;;;1.43;60.64;100804.91;5093894;28;20036;-53
2020/12/18 14:32:14;;;;;;;6.93;4.30;;;;;;;1.35;61.18;100806.34;5099095;28;20547;-54
2020/12/18 14:34:40;;;;;;;5.97;4.25;;;;;;;1.52;61.09;100817.97;5098875;28;20031;-54
2020/12/18 14:37:10;;;;;;;5.07;4.07;;;;;;;1.45;61.53;100823.69;5098840;28;20055;-53
2020/12/18 14:39:37;;;;;;;6.53;4.35;;;;;;;1.51;61.08;100806.06;5097920;28;20061;-54
2020/12/18 14:42:04;;;;;;;8.60;4.13;;;;;;;1.12;61.52;100811.50;5098220;28;20061;-53
2020/12/18 14:44:30;;;;;;;5.43;4.05;;;;;;;1.15;62.26;100811.59;5097792;28;20071;-54
2020/12/18 14:46:56;;;;;;;7.38;4.38;;;;;;;0.91;62.51;100806.50;5095283;28;20070;-53
2020/12/18 14:49:22;;;;;;;4.30;3.85;;;;;;;0.77;63.78;100807.69;5093499;28;20070;-53
2020/12/18 14:51:47;;;;;;;4.55;3.70;;;;;;;0.77;63.36;100802.59;5098370;28;20043;-54
2020/12/18 14:54:14;;;;;;;3.95;3.55;;;;;;;0.63;64.08;100809.75;5098641;28;20052;-54
2020/12/18 14:56:39;;;;;;;5.88;3.67;;;;;;;0.47;64.56;100814.28;5089085;28;20024;-54
2020/12/18 14:59:05;;;;;;;4.35;3.75;;;;;;;0.32;64.99;100819.63;5084779;28;20078;-53
2020/12/18 15:01:30;;;;;;;4.15;3.75;;;;;;;0.34;65.71;100824.78;5084771;28;20222;-54
2020/12/18 15:03:56;;;;;;;5.68;4.50;;;;;;;0.34;65.55;100802.75;5084822;28;20024;-54
2020/12/18 15:06:22;;;;;;;6.45;4.78;;;;;;;0.37;65.43;100809.66;5084736;28;20032;-54
2020/12/18 15:08:47;;;;;;;6.53;4.38;;;;;;;0.42;65.02;100803.03;5084494;28;20035;-54
2020/12/18 15:11:13;;;;;;;5.53;4.57;;;;;;;0.44;65.08;100803.97;5084643;28;20028;-53
2020/12/18 15:13:39;;;;;;;5.53;4.75;;;;;;;0.66;65.34;100809.88;5084633;28;20032;-54
2020/12/18 15:16:05;;;;;;;5.32;4.55;;;;;;;0.41;65.95;100803.81;5084795;28;20085;-53
2020/12/18 15:18:30;;;;;;;6.47;4.90;;;;;;;0.23;65.94;100808.22;5084647;28;20046;-54
2020/12/18 15:20:56;;;;;;;6.55;4.90;;;;;;;0.42;66.55;100803.03;5083069;28;20325;-54
2020/12/18 15:23:21;;;;;;;7.10;5.07;;;;;;;0.36;66.62;100804.47;5076741;28;20037;-55
2020/12/18 15:25:47;;;;;;;6.55;5.20;;;;;;;0.26;67.13;100808.38;5077791;28;21014;-56
2020/12/18 15:28:13;;;;;;;7.07;5.22;;;;;;;0.06;67.43;100811.00;5071922;28;20029;-54
2020/12/18 15:30:38;;;;;;;6.57;4.88;;;;;;;0.13;66.75;100807.88;5076304;28;20317;-54
2020/12/18 15:33:04;;;;;;;7.80;5.50;;;;;;;0.22;66.61;100796.31;5083994;28;20041;-53
2020/12/18 15:35:30;;;;;;;7.57;4.95;;;;;;;0.28;67.11;100810.13;5084236;28;20221;-53
2020/12/18 15:37:56;;;;;;;7.50;5.45;;;;;;;0.09;67.66;100810.25;5075773;28;20020;-55
2020/12/18 15:40:22;;;;;;;7.63;5.15;;;;;;;0.13;66.96;100812.97;5083732;28;20333;-56
2020/12/18 15:42:49;;;;;;;6.95;5.60;;;;;;;0.16;67.88;100807.13;5083805;28;20021;-54
2020/12/18 15:45:14;;;;;;;8.63;5.32;;;;;;;0.10;67.60;100811.97;5084155;28;20079;-54
2020/12/18 15:47:40;;;;;;;7.03;5.50;;;;;;;0.30;67.70;100805.09;5083841;28;20361;-55
2020/12/18 15:50:06;;;;;;;8.15;5.80;;;;;;;0.28;66.92;100816.91;5083679;28;20024;-54
2020/12/18 15:52:32;;;;;;;8.70;6.05;;;;;;;0.36;67.45;100820.63;5084041;28;20317;-53
2020/12/18 15:54:58;;;;;;;8.70;5.82;;;;;;;0.42;66.82;100820.00;5083757;28;20029;-53
2020/12/18 15:57:23;;;;;;;7.50;5.93;;;;;;;0.44;66.83;100803.97;5083880;28;20048;-53
2020/12/18 15:59:49;;;;;;;9.00;5.93;;;;;;;0.45;66.13;100813.31;5081468;28;20222;-54
2020/12/18 16:02:16;;;;;;;8.70;5.78;;;;;;;0.62;67.08;100819.06;5083623;28;20028;-54
2020/12/18 16:04:42;;;;;;;9.00;6.68;;;;;;;0.32;66.21;100757.63;5083733;28;20032;-54
2020/12/18 16:07:08;;;;;;;6.88;5.53;;;;;;;0.54;66.57;100819.59;5082672;28;20422;-53
2020/12/18 16:09:34;;;;;;;6.95;5.80;;;;;;;0.47;66.81;100821.91;5082524;28;20028;-54
2020/12/18 16:12:00;;;;;;;7.03;5.65;;;;;;;0.42;66.92;100810.66;5083116;28;20039;-53
2020/12/18 16:14:25;;;;;;;8.07;5.90;;;;;;;0.41;66.71;100818.25;5083183;28;20108;-54
2020/12/18 16:16:51;;;;;;;7.43;5.90;;;;;;;0.32;67.24;100808.59;5080066;28;20333;-54
2020/12/18 16:19:16;;;;;;;8.35;6.20;;;;;;;0.29;67.77;100816.97;5063571;28;20033;-53
2020/12/18 16:21:48;;;;;;;8.48;6.60;;;;;;;0.26;67.81;100814.31;5082596;28;20036;-53
2020/12/18 16:24:15;;;;;;;9.77;6.50;;;;;;;0.29;66.94;100811.88;5082684;28;20060;-55
2020/12/18 16:26:40;;;;;;;9.07;6.82;;;;;;;0.18;68.14;100810.59;5082669;28;20093;-54
2020/12/18 16:29:06;;;;;;;11.35;7.40;;;;;;;0.31;68.68;100817.91;5082407;28;20305;-53
2020/12/18 16:31:34;;;;;;;10.40;7.63;;;;;;;0.23;68.71;100824.38;5082939;28;20078;-52
2020/12/18 16:34:01;;;;;;;9.25;6.80;;;;;;;0.36;67.55;100822.28;5082993;28;20047;-54
2020/12/18 16:36:26;;;;;;;9.70;7.57;;;;;;;0.17;68.30;100804.63;5082666;28;20028;-54
2020/12/18 16:38:53;;;;;;;11.27;7.22;;;;;;;0.35;67.86;100823.97;5082527;28;20039;-54
2020/12/18 16:41:30;;;;;;;10.60;8.13;;;;;;;0.30;68.00;100816.16;5082535;28;20029;-53
2020/12/18 16:43:57;;;;;;;10.73;7.75;;;;;;;0.30;68.82;100841.66;5062955;28;20213;-54
2020/12/18 16:46:22;;;;;;;13.23;8.45;;;;;;;0.28;68.11;100827.09;5062800;28;20363;-54
2020/12/18 16:48:48;;;;;;;9.80;7.57;;;;;;;0.44;67.91;100831.09;5062788;28;20021;-54
2020/12/18 16:51:19;;;;;;;10.23;7.75;;;;;;;0.33;68.72;100835.81;5078782;28;20322;-53
2020/12/18 16:53:45;;;;;;;8.88;7.68;;;;;;;0.28;68.51;100822.00;5082245;28;20024;-53
2020/12/18 16:56:15;;;;;;;11.48;7.97;;;;;;;0.54;68.14;100827.22;5081197;28;20207;-55
2020/12/18 16:58:41;;;;;;;10.00;7.45;;;;;;;0.49;68.38;100834.72;5082316;28;20032;-53
2020/12/18 17:01:06;;;;;;;9.52;7.75;;;;;;;0.47;68.83;100823.56;5082094;28;20024;-53
2020/12/18 17:03:32;;;;;;;11.57;7.72;;;;;;;0.11;69.14;100822.22;5082281;28;20041;-54
2020/12/18 17:05:57;;;;;;;14.60;8.55;;;;;;;0.31;69.12;100823.00;5082274;28;20020;-55
2020/12/18 17:08:23;;;;;;;10.65;7.22;;;;;;;0.19;69.60;100821.66;5082532;28;20029;-53
2020/12/18 17:10:49;;;;;;;9.18;7.05;;;;;;;0.27;69.63;100815.16;5082594;28;20040;-54
2020/12/18 17:13:14;;;;;;;9.68;7.65;;;;;;;0.14;69.00;100816.38;5080339;28;20021;-54
2020/12/18 17:15:40;;;;;;;10.57;7.38;;;;;;;0.02;69.72;100803.19;5075936;28;20028;-54
2020/12/18 17:18:05;;;;;;;8.75;6.82;;;;;;;0.06;70.47;100812.66;5078195;28;20024;-54
2020/12/18 17:20:31;;;;;;;12.07;7.38;;;;;;;0.12;70.38;100811.22;5076495;28;20028;-54
2020/12/18 17:22:56;;;;;;;9.07;7.10;;;;;;;0.21;69.95;100809.84;5074096;28;20135;-54
2020/12/18 17:25:22;;;;;;;9.60;6.93;;;;;;;0.38;69.83;100811.34;5069190;28;20206;-54
2020/12/18 17:27:47;;;;;;;9.25;7.07;;;;;;;0.22;70.02;100817.53;5078152;28;20070;-54
2020/12/18 17:30:13;;;;;;;11.23;7.10;;;;;;;0.16;69.93;100818.19;5078390;28;20037;-55
2020/12/18 17:32:39;;;;;;;10.43;7.18;;;;;;;0.36;70.34;100819.75;5079921;28;20084;-54
2020/12/18 17:35:04;;;;;;;9.75;6.60;;;;;;;-0.07;70.02;100802.00;5073241;28;20025;-54
2020/12/18 17:37:30;;;;;;;11.48;7.50;;;;;;;-0.04;70.28;100803.81;5080327;28;20032;-55
2020/12/18 17:39:56;;;;;;;12.00;8.38;;;;;;;0.10;70.53;100796.69;5075816;28;20032;-54
2020/12/18 17:42:21;;;;;;;10.02;6.68;;;;;;;-0.04;71.63;100814.00;5076216;28;20020;-54
2020/12/18 17:44:47;;;;;;;11.80;8.25;;;;;;;-0.24;72.78;100820.81;5081284;28;20098;-55
2020/12/18 17:47:13;;;;;;;10.98;8.02;;;;;;;0.02;72.29;100814.22;5081457;28;20074;-53
2020/12/18 17:49:38;;;;;;;9.23;7.15;;;;;;;-0.19;72.64;100834.59;5074157;28;20314;-54
2020/12/18 17:52:04;;;;;;;11.88;7.95;;;;;;;-0.11;72.36;100814.56;5081916;28;20035;-54
2020/12/18 17:54:29;;;;;;;11.00;7.90;;;;;;;-0.20;72.64;100827.75;5081760;28;20301;-54
2020/12/18 17:56:55;;;;;;;12.50;8.38;;;;;;;-0.08;73.86;100819.75;5081824;28;20247;-54
2020/12/18 17:59:20;;;;;;;14.68;8.38;;;;;;;-0.38;74.54;100812.63;5081592;28;20028;-54
2020/12/18 18:01:46;;;;;;;10.88;7.68;;;;;;;-0.41;75.10;100805.72;5073428;28;20025;-54
2020/12/18 18:04:11;;;;;;;12.10;8.55;;;;;;;-0.33;74.36;100815.34;5067961;28;20025;-54
2020/12/18 18:06:37;;;;;;;14.20;8.65;;;;;;;-0.56;75.44;100821.19;5062130;28;20021;-55
2020/12/18 18:09:03;;;;;;;14.57;9.68;;;;;;;-0.44;74.94;100799.63;5071548;28;20310;-54
2020/12/18 18:11:28;;;;;;;13.60;9.10;;;;;;;-0.32;75.37;100804.38;5076954;28;20040;-53
2020/12/18 18:13:54;;;;;;;13.13;8.60;;;;;;;-0.43;74.93;100806.44;5074855;28;20083;-54
2020/12/18 18:16:20;;;;;;;12.77;8.80;;;;;;;-0.38;75.43;100804.97;5068868;28;20056;-54
2020/12/18 18:18:47;;;;;;;13.50;8.95;;;;;;;-0.54;76.15;100804.34;5073116;28;20032;-53
2020/12/18 18:21:12;;;;;;;13.75;8.68;;;;;;;-0.14;74.55;100796.59;5081457;28;20336;-55
2020/12/18 18:23:38;;;;;;;12.90;9.18;;;;;;;-0.04;74.19;100804.66;5081514;28;20024;-54
2020/12/18 18:26:04;;;;;;;15.27;10.23;;;;;;;-0.15;74.30;100789.78;5081551;28;20037;-55
2020/12/18 18:28:29;;;;;;;16.83;10.02;;;;;;;-0.12;74.93;100792.44;5081549;28;20036;-54
2020/12/18 18:30:55;;;;;;;12.50;9.38;;;;;;;-0.29;75.07;100797.69;5074255;28;20067;-53
2020/12/18 18:33:20;;;;;;;14.43;10.80;;;;;;;-0.38;76.43;100802.44;5085335;28;20025;-53
2020/12/18 18:35:46;;;;;;;14.95;9.93;;;;;;;-0.45;77.10;100805.53;5079046;28;20326;-53
2020/12/18 18:38:13;;;;;;;15.70;10.55;;;;;;;-0.36;76.81;100785.53;5070283;28;20096;-54
2020/12/18 18:40:43;;;;;;;14.50;9.93;;;;;;;-0.21;76.38;100792.94;5080691;28;20031;-55
2020/12/18 18:43:09;;;;;;;16.63;9.93;;;;;;;-0.26;76.52;100791.88;5084685;28;20074;-56
2020/12/18 18:45:35;;;;;;;15.93;9.30;;;;;;;-0.57;77.35;100809.31;5084280;28;20044;-54
2020/12/18 18:48:03;;;;;;;16.05;10.43;;;;;;;-0.14;76.69;100794.03;5081643;28;20051;-54
2020/12/18 18:50:29;;;;;;;15.27;10.48;;;;;;;-0.54;76.83;100809.44;5084960;28;20100;-53
2020/12/18 18:52:56;;;;;;;18.50;12.18;;;;;;;-0.45;77.97;100800.44;5078900;28;20028;-53
2020/12/18 18:55:22;;;;;;;17.08;11.60;;;;;;;-0.49;77.56;100794.34;5074639;28;20231;-55
2020/12/18 18:57:48;;;;;;;16.02;10.07;;;;;;;-0.42;77.14;100800.56;5065451;28;20059;-55
2020/12/18 19:00:14;;;;;;;15.07;11.27;;;;;;;-0.35;78.29;100805.09;5071103;28;20033;-53
2020/12/18 19:02:41;;;;;;;15.75;11.48;;;;;;;-0.48;77.27;100787.59;5085132;28;20021;-53
2020/12/18 19:05:08;;;;;;;15.55;11.63;;;;;;;-0.30;78.15;100783.25;5084575;28;20078;-55
2020/12/18 19:07:34;;;;;;;19.80;12.80;;;;;;;-0.35;77.86;100798.31;5076003;28;20041;-54
2020/12/18 19:10:00;;;;;;;14.20;11.70;;;;;;;-0.23;77.88;100813.25;5067958;28;20024;-53
2020/12/18 19:12:26;;;;;;;17.67;11.30;;;;;;;-0.39;78.17;100809.19;5084928;28;20217;-53
2020/12/18 19:14:52;;;;;;;17.98;11.68;;;;;;;-0.36;78.50;100818.63;5084681;28;20340;-54
2020/12/18 19:17:18;;;;;;;16.92;12.65;;;;;;;-0.34;78.70;100817.03;5084722;28;20040;-55
2020/12/18 19:19:44;;;;;;;14.63;11.23;;;;;;;-0.57;79.02;100818.59;5084331;28;20030;-54
2020/12/18 19:22:10;;;;;;;17.25;12.70;;;;;;;-0.26;78.25;100815.63;5084546;28;20036;-53
2020/12/18 19:24:36;;;;;;;17.58;11.43;;;;;;;-0.48;79.38;100810.50;5084496;28;20337;-53
2020/12/18 19:27:02;;;;;;;18.23;11.73;;;;;;;-0.48;78.96;100813.03;5084567;28;20032;-53
2020/12/18 19:29:29;;;;;;;17.27;12.43;;;;;;;-0.52;79.71;100804.41;5084082;28;20024;-53
2020/12/18 19:31:54;;;;;;;19.67;12.18;;;;;;;-0.48;79.80;100803.72;5084053;28;20036;-52
2020/12/18 19:34:20;;;;;;;18.27;11.73;;;;;;;-0.55;79.26;100804.28;5084441;28;20024;-52
2020/12/18 19:36:46;;;;;;;12.60;8.55;;;;;;;-0.85;80.52;100816.56;5064647;28;20024;-53
2020/12/18 19:39:12;;;;;;;18.23;12.00;;;;;;;-0.83;81.42;100812.41;5078317;28;20082;-53
2020/12/18 19:41:40;;;;;;;16.55;11.65;;;;;;;-1.02;81.44;100770.94;5083871;28;20260;-53
2020/12/18 19:44:06;;;;;;;16.48;10.05;;;;;;;-0.92;81.26;100823.91;5083850;28;20141;-52
2020/12/18 19:46:32;;;;;;;16.85;11.88;;;;;;;-0.70;81.26;100812.13;5084206;28;20032;-52
2020/12/18 19:48:59;;;;;;;19.38;11.55;;;;;;;-0.97;82.80;100825.41;5084003;28;20256;-53
2020/12/18 19:51:24;;;;;;;18.23;12.60;;;;;;;-0.70;82.03;100814.66;5083622;28;20373;-53
2020/12/18 19:53:51;;;;;;;18.63;11.80;;;;;;;-0.80;82.41;100815.09;5081431;28;20029;-54
2020/12/18 19:56:18;;;;;;;18.08;11.88;;;;;;;-0.80;81.96;100815.09;5080044;28;20058;-53
2020/12/18 19:58:43;;;;;;;16.38;10.93;;;;;;;-0.92;82.26;100813.75;5077967;28;20024;-52
2020/12/18 20:01:09;;;;;;;16.52;10.32;;;;;;;-1.07;81.84;100819.03;5077772;28;20077;-52
2020/12/18 20:03:34;;;;;;;18.83;12.77;;;;;;;-0.94;82.77;100812.81;5077671;28;20016;-51
2020/12/18 20:06:00;;;;;;;17.63;12.43;;;;;;;-0.80;82.56;100797.28;5078250;28;20078;-51
2020/12/18 20:08:26;;;;;;;20.63;13.40;;;;;;;-0.87;82.07;100804.66;5079362;28;20028;-52
2020/12/18 20:10:52;;;;;;;17.65;11.35;;;;;;;-0.84;82.39;100803.94;5082666;28;20043;-50
2020/12/18 20:13:18;;;;;;;19.77;12.57;;;;;;;-0.63;81.67;100811.56;5083473;28;20037;-51
2020/12/18 20:15:44;;;;;;;17.98;12.63;;;;;;;-0.72;81.46;100801.88;5083181;28;20063;-52
2020/12/18 20:18:09;;;;;;;18.83;12.93;;;;;;;-0.49;81.91;100807.06;5083529;28;20309;-52
2020/12/18 20:20:36;;;;;;;17.73;12.27;;;;;;;-0.69;81.58;100808.78;5083217;28;20081;-52
2020/12/18 20:23:03;;;;;;;18.05;12.18;;;;;;;-0.75;81.72;100803.44;5083439;28;20039;-52
2020/12/18 20:25:28;;;;;;;16.90;11.48;;;;;;;-0.82;80.86;100793.81;5083462;28;20032;-52
2020/12/18 20:27:54;;;;;;;17.85;12.95;;;;;;;-0.63;81.93;100811.56;5083156;28;20087;-53
2020/12/18 20:30:20;;;;;;;20.63;12.88;;;;;;;-0.71;80.86;100808.72;5083130;28;20024;-52
2020/12/18 20:32:48;;;;;;;19.60;12.80;;;;;;;-1.03;80.99;100742.91;5083049;28;20052;-51
2020/12/18 20:35:13;;;;;;;22.05;14.38;;;;;;;-0.68;80.96;100807.09;5083060;28;20199;-52
2020/12/18 20:37:39;;;;;;;22.10;13.48;;;;;;;-1.03;82.06;100817.50;5082878;28;20033;-51
2020/12/18 20:40:08;;;;;;;21.38;14.57;;;;;;;-0.90;82.03;100832.50;5082732;28;20036;-52
2020/12/18 20:42:40;;;;;;;21.13;14.10;;;;;;;-0.49;81.80;100813.84;5082913;28;20074;-54
2020/12/18 20:45:08;;;;;;;19.90;14.32;;;;;;;-0.47;80.26;100815.66;5083071;28;20392;-51
2020/12/18 20:47:35;;;;;;;17.35;11.48;;;;;;;-0.86;80.86;100808.06;5082821;28;20059;-52
2020/12/18 20:50:03;;;;;;;21.00;14.48;;;;;;;-0.91;81.59;100809.56;5080036;28;20322;-52
2020/12/18 20:52:29;;;;;;;20.70;14.27;;;;;;;-0.82;81.81;100819.25;5079498;28;20025;-53
2020/12/18 20:54:55;;;;;;;24.88;15.07;;;;;;;-0.84;80.91;100820.84;5082213;28;20039;-53
2020/12/18 20:57:20;;;;;;;21.05;13.35;;;;;;;-0.93;81.66;100822.16;5082890;28;20020;-54
2020/12/18 20:59:47;;;;;;;21.92;14.60;;;;;;;-0.79;81.33;100825.31;5082647;28;20029;-54
2020/12/18 21:02:12;;;;;;;22.35;15.18;;;;;;;-0.63;81.84;100818.34;5082577;28;20305;-53
2020/12/18 21:04:38;;;;;;;22.77;15.50;;;;;;;-0.54;80.86;100809.44;5082465;28;20029;-52
2020/12/18 21:07:04;;;;;;;20.85;13.23;;;;;;;-0.55;80.01;100817.84;5082350;28;20062;-53
2020/12/18 21:09:29;;;;;;;21.95;14.88;;;;;;;-0.71;81.08;100828.22;5082809;28;20029;-55
2020/12/18 21:11:55;;;;;;;21.80;14.82;;;;;;;-0.50;79.17;100809.56;5082349;28;20020;-52
2020/12/18 21:14:21;;;;;;;21.38;14.40;;;;;;;-0.35;79.72;100817.81;5082716;28;20325;-53
2020/12/18 21:16:50;;;;;;;22.58;14.80;;;;;;;-0.31;79.96;100818.81;5082443;28;20025;-51
2020/12/18 21:19:17;;;;;;;23.38;14.65;;;;;;;-0.43;80.32;100819.19;5082490;28;20025;-53
2020/12/18 21:21:42;;;;;;;23.25;12.45;;;;;;;-0.72;81.03;100826.47;5082573;28;20035;-52
2020/12/18 21:24:09;;;;;;;22.92;15.35;;;;;;;-0.49;80.12;100818.94;5082439;28;20033;-53
2020/12/18 21:26:34;;;;;;;24.27;14.30;;;;;;;-0.33;78.99;100813.66;5082387;28;20055;-53
2020/12/18 21:29:00;;;;;;;22.33;14.65;;;;;;;-0.38;79.46;100820.25;5082276;28;20210;-52
2020/12/18 21:31:35;;;;;;;20.98;14.00;;;;;;;-0.60;79.86;100821.91;5082074;28;20296;-56
2020/12/18 21:34:02;;;;;;;22.00;14.45;;;;;;;-0.41;79.41;100817.59;5082447;28;20035;-52
2020/12/18 21:36:28;;;;;;;22.92;15.98;;;;;;;-0.42;79.87;100818.38;5082401;28;20027;-53
2020/12/18 21:38:54;;;;;;;26.13;14.25;;;;;;;-0.66;80.13;100806.34;5082289;28;20225;-55
2020/12/18 21:41:31;;;;;;;19.83;14.77;;;;;;;-0.47;80.11;100823.28;5082270;28;20044;-52
2020/12/18 21:43:57;;;;;;;24.55;15.68;;;;;;;-0.47;79.35;100817.31;5065589;28;20052;-52
2020/12/18 21:46:23;;;;;;;22.85;14.63;;;;;;;-0.53;79.65;100810.28;5080725;28;20043;-53
2020/12/18 21:48:49;;;;;;;20.83;14.00;;;;;;;-0.29;79.20;100818.06;5082251;28;20399;-53
2020/12/18 21:51:15;;;;;;;19.42;13.57;;;;;;;-0.39;79.13;100823.59;5081954;28;20029;-53
2020/12/18 21:53:41;;;;;;;24.52;14.68;;;;;;;-0.50;79.28;100823.13;5082080;28;20025;-54
2020/12/18 21:56:10;;;;;;;22.75;14.23;;;;;;;-0.58;79.99;100815.19;5082164;28;20074;-53
2020/12/18 21:58:41;;;;;;;26.90;15.52;;;;;;;-0.33;78.85;100818.75;5080836;28;20091;-54
2020/12/18 22:01:08;;;;;;;22.85;14.43;;;;;;;-0.33;78.38;100820.44;5082009;28;20255;-54
2020/12/18 22:03:33;;;;;;;25.13;13.60;;;;;;;-0.46;78.72;100819.91;5082077;28;20025;-51
2020/12/18 22:06:00;;;;;;;25.73;15.57;;;;;;;-0.44;79.91;100815.78;5082947;28;20024;-53
2020/12/18 22:08:27;;;;;;;22.20;14.15;;;;;;;-0.58;78.87;100787.22;5086032;28;20111;-53
2020/12/18 22:10:54;;;;;;;23.33;15.23;;;;;;;-0.46;80.17;100819.91;5085710;28;20138;-53
2020/12/18 22:13:19;;;;;;;21.15;14.27;;;;;;;-0.32;79.11;100815.41;5086079;28;20032;-52
2020/12/18 22:15:46;;;;;;;23.27;15.32;;;;;;;-0.53;79.79;100811.19;5080435;28;20264;-53
2020/12/18 22:18:13;;;;;;;21.60;14.82;;;;;;;-0.25;79.08;100814.84;5066167;28;20032;-52
2020/12/18 22:20:39;;;;;;;23.63;15.43;;;;;;;-0.07;78.90;100813.84;5072795;28;20070;-52
2020/12/18 22:23:04;;;;;;;23.38;14.90;;;;;;;-0.10;78.23;100809.53;5085587;28;20029;-53
2020/12/18 22:25:30;;;;;;;21.27;14.75;;;;;;;-0.54;79.32;100808.56;5085656;28;20086;-52
2020/12/18 22:27:56;;;;;;;20.80;14.50;;;;;;;-0.63;79.40;100796.31;5085392;28;20099;-52
2020/12/18 22:30:21;;;;;;;23.13;14.93;;;;;;;-0.37;79.55;100806.69;5082521;28;20020;-52
2020/12/18 22:32:47;;;;;;;18.90;11.15;;;;;;;-0.75;78.80;100803.44;5101128;28;20209;-51
2020/12/18 22:35:12;;;;;;;22.08;14.10;;;;;;;-0.63;80.08;100795.44;5085759;28;20063;-53
2020/12/18 22:37:38;;;;;;;21.65;14.80;;;;;;;-0.46;79.43;100799.56;5085414;28;20040;-52
2020/12/18 22:40:05;;;;;;;23.98;14.60;;;;;;;-0.52;79.73;100796.78;5085420;28;20020;-52
2020/12/18 22:42:34;;;;;;;23.73;14.93;;;;;;;-0.31;78.76;100804.44;5085264;28;20382;-51
2020/12/18 22:44:59;;;;;;;24.08;13.90;;;;;;;-0.53;78.97;100798.47;5085269;28;20040;-52
2020/12/18 22:47:30;;;;;;;21.40;14.25;;;;;;;-0.81;79.55;100765.00;5085234;28;20099;-53
2020/12/18 22:49:56;;;;;;;23.73;14.40;;;;;;;-0.58;79.40;100789.75;5076670;28;20035;-53
2020/12/18 22:52:21;;;;;;;19.90;13.65;;;;;;;-0.39;79.89;100795.59;5085125;28;20032;-52
2020/12/18 22:54:47;;;;;;;25.10;14.90;;;;;;;-0.59;79.37;100793.09;5084727;28;20025;-52
2020/12/18 22:57:14;;;;;;;21.70;14.98;;;;;;;-0.38;78.99;100792.25;5085085;28;20025;-52
2020/12/18 22:59:39;;;;;;;23.25;15.00;;;;;;;-0.41;78.80;100793.00;5085019;28;20028;-52
2020/12/18 23:02:05;;;;;;;24.65;15.45;;;;;;;-0.29;78.84;100777.34;5084898;28;20038;-52
2020/12/18 23:04:30;;;;;;;21.92;13.57;;;;;;;-0.57;79.75;100781.31;5085014;28;20029;-52
2020/12/18 23:06:56;;;;;;;21.45;13.93;;;;;;;-0.78;80.40;100770.25;5077018;28;20033;-52
2020/12/18 23:09:21;;;;;;;22.33;14.65;;;;;;;-0.62;80.40;100787.03;5085055;28;20031;-52
2020/12/18 23:11:47;;;;;;;28.55;15.75;;;;;;;-0.65;80.47;100771.63;5084851;28;20028;-52
2020/12/18 23:14:13;;;;;;;25.05;15.15;;;;;;;-0.91;80.71;100790.06;5084865;28;20032;-51
2020/12/18 23:16:39;;;;;;;25.60;15.35;;;;;;;-0.80;80.84;100782.88;5084432;28;20028;-51
2020/12/18 23:19:04;;;;;;;23.67;14.88;;;;;;;-0.57;80.17;100786.41;5084947;28;20033;-51
2020/12/18 23:21:30;;;;;;;22.38;14.57;;;;;;;-0.90;80.16;100781.66;5084751;28;20078;-52
2020/12/18 23:23:55;;;;;;;26.70;15.18;;;;;;;-0.86;80.18;100797.88;5084579;28;20039;-52
2020/12/18 23:26:22;;;;;;;21.58;13.38;;;;;;;-0.79;79.63;100787.16;5084920;28;20150;-52
2020/12/18 23:28:48;;;;;;;23.95;14.25;;;;;;;-0.67;79.81;100793.56;5084374;28;20051;-52
2020/12/18 23:31:14;;;;;;;23.75;14.60;;;;;;;-0.47;80.20;100794.41;5084458;28;20032;-53
2020/12/18 23:33:40;;;;;;;22.17;14.45;;;;;;;-0.67;80.06;100789.38;5084512;28;20025;-52
2020/12/18 23:36:05;;;;;;;22.35;13.55;;;;;;;-0.56;79.12;100793.22;5084519;28;20119;-51
2020/12/18 23:38:31;;;;;;;21.13;14.32;;;;;;;-0.44;78.94;100782.69;5084571;28;20029;-52
2020/12/18 23:40:57;;;;;;;24.55;13.20;;;;;;;-0.61;78.07;100794.72;5084473;28;20035;-52
2020/12/18 23:43:22;;;;;;;20.80;13.90;;;;;;;-0.47;77.82;100794.41;5084501;28;20036;-52
2020/12/18 23:45:48;;;;;;;19.63;13.02;;;;;;;-0.58;78.14;100788.91;5084710;28;20036;-52
2020/12/18 23:48:14;;;;;;;20.65;13.65;;;;;;;-0.57;78.16;100788.97;5084463;28;20036;-52
2020/12/18 23:50:39;;;;;;;21.27;13.50;;;;;;;-0.62;78.68;100792.13;5084262;28;20024;-52
2020/12/18 23:53:05;;;;;;;21.40;13.00;;;;;;;-0.82;79.41;100789.59;5084304;28;20028;-51
2020/12/18 23:55:30;;;;;;;21.10;13.02;;;;;;;-0.95;79.50;100777.16;5084009;28;20067;-51
2020/12/18 23:57:56;;;;;;;18.45;11.98;;;;;;;-0.78;78.53;100785.50;5076070;28;20221;-51
